アデレード の空港の天気 - METARとTAF

アデレード空港 ( YPAD / ADL ) - オーストラリア 南オーストラリア州アデレード
飛行場実況気象(Metar)
観測時間10/22 02:30 ACDT (10/21 16:00 UTC)
風向・風速西 2m/s
視程10km以上
天気現象
なし
気温14℃
湿度63%
気圧1012hPa
METARYPAD 211600Z 27004KT CAVOK 14/07 Q1012
過去の天気等 Google飛行場航空写真 Wunderground天気予報

過去48時間のMETAR

飛行場予報(TAF)
発表時間: 10/21 21:32 ACDT (10/21 11:02 UTC)
予報対象時間: 21日22時 ACDT ~ 23日4時 ACDT
風向・風速東南東 4m/s
視程10km以上
なし
22日10時 ACDT から
風向・風速南西 4m/s
視程10km以上
なし
22日18時 ACDT ~ 22日20時 ACDT に徐々に
風向・風速北東 5m/s
視程10km以上
天気現象弱いしゅう雨
なし
TAF YPAD 211102Z 2112/2218 11008KT CAVOK
FM220000 22007KT CAVOK
BECMG 2208/2210 04010KT 9999 -SHRA NSC